sensor_id;sensor_type;location;lat;lon;timestamp;temperature;humidity
34201;DHT22;20469;55.638;37.670;2023-02-19T00:01:47;-6.40;99.90
34201;DHT22;20469;55.638;37.670;2023-02-19T00:04:17;-6.40;99.90
34201;DHT22;20469;55.638;37.670;2023-02-19T00:06:46;-6.40;99.90
34201;DHT22;20469;55.638;37.670;2023-02-19T00:09:15;-6.40;99.90
34201;DHT22;20469;55.638;37.670;2023-02-19T00:11:43;-6.40;99.90
34201;DHT22;20469;55.638;37.670;2023-02-19T00:14:17;-6.40;99.90
34201;DHT22;20469;55.638;37.670;2023-02-19T00:16:45;-6.40;99.90
34201;DHT22;20469;55.638;37.670;2023-02-19T00:19:16;-6.30;99.90
34201;DHT22;20469;55.638;37.670;2023-02-19T00:21:43;-6.40;99.90
34201;DHT22;20469;55.638;37.670;2023-02-19T00:24:12;-6.40;99.90
34201;DHT22;20469;55.638;37.670;2023-02-19T00:26:41;-6.40;99.90
34201;DHT22;20469;55.638;37.670;2023-02-19T00:29:14;-6.50;99.90
34201;DHT22;20469;55.638;37.670;2023-02-19T00:31:43;-6.50;99.90
34201;DHT22;20469;55.638;37.670;2023-02-19T00:34:11;-6.50;99.90
34201;DHT22;20469;55.638;37.670;2023-02-19T00:36:40;-6.50;99.90
34201;DHT22;20469;55.638;37.670;2023-02-19T00:39:11;-6.60;99.90
34201;DHT22;20469;55.638;37.670;2023-02-19T00:41:42;-6.50;99.90
34201;DHT22;20469;55.638;37.670;2023-02-19T00:44:11;-6.50;99.90
34201;DHT22;20469;55.638;37.670;2023-02-19T00:46:42;-6.50;99.90
34201;DHT22;20469;55.638;37.670;2023-02-19T00:49:19;-6.50;99.90
34201;DHT22;20469;55.638;37.670;2023-02-19T00:51:48;-6.50;99.90
34201;DHT22;20469;55.638;37.670;2023-02-19T00:54:15;-6.50;99.90
34201;DHT22;20469;55.638;37.670;2023-02-19T00:56:43;-6.50;99.90
34201;DHT22;20469;55.638;37.670;2023-02-19T00:59:11;-6.50;99.90
34201;DHT22;20469;55.638;37.670;2023-02-19T01:01:42;-6.60;99.90
34201;DHT22;20469;55.638;37.670;2023-02-19T01:04:12;-6.60;99.90
34201;DHT22;20469;55.638;37.670;2023-02-19T01:06:40;-6.60;99.90
34201;DHT22;20469;55.638;37.670;2023-02-19T01:09:10;-6.60;99.90
34201;DHT22;20469;55.638;37.670;2023-02-19T01:11:38;-6.70;99.90
34201;DHT22;20469;55.638;37.670;2023-02-19T01:14:06;-6.70;99.90
34201;DHT22;20469;55.638;37.670;2023-02-19T01:16:34;-6.60;99.90
34201;DHT22;20469;55.638;37.670;2023-02-19T01:19:02;-6.70;99.90
34201;DHT22;20469;55.638;37.670;2023-02-19T01:21:30;-6.70;99.90
34201;DHT22;20469;55.638;37.670;2023-02-19T01:23:58;-6.70;99.90
34201;DHT22;20469;55.638;37.670;2023-02-19T01:26:29;-6.70;99.90
34201;DHT22;20469;55.638;37.670;2023-02-19T01:28:58;-6.70;99.90
34201;DHT22;20469;55.638;37.670;2023-02-19T01:31:26;-6.70;99.90
34201;DHT22;20469;55.638;37.670;2023-02-19T01:33:58;-6.70;99.90
34201;DHT22;20469;55.638;37.670;2023-02-19T01:36:26;-6.70;99.90
34201;DHT22;20469;55.638;37.670;2023-02-19T01:38:54;-6.70;99.90
34201;DHT22;20469;55.638;37.670;2023-02-19T01:41:24;-6.70;99.90
34201;DHT22;20469;55.638;37.670;2023-02-19T01:44:04;-6.70;99.90
34201;DHT22;20469;55.638;37.670;2023-02-19T01:46:35;-6.70;99.90
34201;DHT22;20469;55.638;37.670;2023-02-19T01:51:44;-6.70;99.90
34201;DHT22;20469;55.638;37.670;2023-02-19T01:54:16;-6.80;99.90
34201;DHT22;20469;55.638;37.670;2023-02-19T01:56:47;-6.70;99.90
34201;DHT22;20469;55.638;37.670;2023-02-19T01:59:16;-6.70;99.90
34201;DHT22;20469;55.638;37.670;2023-02-19T02:01:45;-6.70;99.90
34201;DHT22;20469;55.638;37.670;2023-02-19T02:04:13;-6.70;99.90
34201;DHT22;20469;55.638;37.670;2023-02-19T02:09:13;-6.70;99.90
34201;DHT22;20469;55.638;37.670;2023-02-19T02:12:01;-6.70;99.90
34201;DHT22;20469;55.638;37.670;2023-02-19T02:14:32;-6.70;99.90
34201;DHT22;20469;55.638;37.670;2023-02-19T02:17:23;-6.70;99.90
34201;DHT22;20469;55.638;37.670;2023-02-19T02:20:16;-6.70;99.90
34201;DHT22;20469;55.638;37.670;2023-02-19T02:23:08;-6.70;99.90
34201;DHT22;20469;55.638;37.670;2023-02-19T02:26:14;-6.60;99.90
34201;DHT22;20469;55.638;37.670;2023-02-19T02:31:57;-6.70;99.90
34201;DHT22;20469;55.638;37.670;2023-02-19T02:34:44;-6.60;99.90
34201;DHT22;20469;55.638;37.670;2023-02-19T02:37:15;-6.60;99.90
34201;DHT22;20469;55.638;37.670;2023-02-19T02:39:44;-6.60;99.90
34201;DHT22;20469;55.638;37.670;2023-02-19T02:42:13;-6.60;99.90
34201;DHT22;20469;55.638;37.670;2023-02-19T02:44:57;-5.80;99.90
34201;DHT22;20469;55.638;37.670;2023-02-19T02:47:50;-6.60;99.90
34201;DHT22;20469;55.638;37.670;2023-02-19T02:50:25;-6.60;99.90
34201;DHT22;20469;55.638;37.670;2023-02-19T02:52:58;-6.60;99.90
34201;DHT22;20469;55.638;37.670;2023-02-19T02:55:49;-6.60;99.90
34201;DHT22;20469;55.638;37.670;2023-02-19T02:58:20;-6.60;99.90
34201;DHT22;20469;55.638;37.670;2023-02-19T03:00:54;-6.50;99.90
34201;DHT22;20469;55.638;37.670;2023-02-19T03:03:43;-6.60;99.90
34201;DHT22;20469;55.638;37.670;2023-02-19T03:06:15;-6.60;99.90
34201;DHT22;20469;55.638;37.670;2023-02-19T03:09:08;-6.60;99.90
34201;DHT22;20469;55.638;37.670;2023-02-19T03:11:39;-6.60;99.90
34201;DHT22;20469;55.638;37.670;2023-02-19T03:14:48;-6.50;99.90
34201;DHT22;20469;55.638;37.670;2023-02-19T03:17:44;-6.60;99.90
34201;DHT22;20469;55.638;37.670;2023-02-19T03:20:33;-6.60;99.90
34201;DHT22;20469;55.638;37.670;2023-02-19T03:23:05;-6.60;99.90
34201;DHT22;20469;55.638;37.670;2023-02-19T03:25:37;-8.00;99.90
34201;DHT22;20469;55.638;37.670;2023-02-19T03:28:27;-6.60;99.90
34201;DHT22;20469;55.638;37.670;2023-02-19T03:31:17;-6.60;99.90
34201;DHT22;20469;55.638;37.670;2023-02-19T03:33:51;-6.70;99.90
34201;DHT22;20469;55.638;37.670;2023-02-19T03:36:21;-6.60;99.90
34201;DHT22;20469;55.638;37.670;2023-02-19T03:38:56;-6.60;99.90
34201;DHT22;20469;55.638;37.670;2023-02-19T03:41:29;-6.60;99.90
34201;DHT22;20469;55.638;37.670;2023-02-19T03:59:57;-6.70;99.90
34201;DHT22;20469;55.638;37.670;2023-02-19T04:02:48;-6.60;99.90
34201;DHT22;20469;55.638;37.670;2023-02-19T04:05:19;-6.70;99.90
34201;DHT22;20469;55.638;37.670;2023-02-19T04:07:55;-6.70;99.90
34201;DHT22;20469;55.638;37.670;2023-02-19T04:10:25;-6.70;99.90
34201;DHT22;20469;55.638;37.670;2023-02-19T04:12:58;-6.70;99.90
34201;DHT22;20469;55.638;37.670;2023-02-19T04:15:30;-6.80;99.90
34201;DHT22;20469;55.638;37.670;2023-02-19T04:18:23;-6.80;99.90
34201;DHT22;20469;55.638;37.670;2023-02-19T04:20:52;-6.80;99.90
34201;DHT22;20469;55.638;37.670;2023-02-19T04:23:22;-6.70;99.90
34201;DHT22;20469;55.638;37.670;2023-02-19T04:25:56;-6.80;99.90
34201;DHT22;20469;55.638;37.670;2023-02-19T04:28:25;-6.80;99.90
34201;DHT22;20469;55.638;37.670;2023-02-19T04:30:54;-6.80;99.90
34201;DHT22;20469;55.638;37.670;2023-02-19T04:33:21;-6.80;99.90
34201;DHT22;20469;55.638;37.670;2023-02-19T04:35:49;-6.80;99.90
34201;DHT22;20469;55.638;37.670;2023-02-19T04:38:17;-6.90;99.90
34201;DHT22;20469;55.638;37.670;2023-02-19T04:40:44;-6.80;99.90
34201;DHT22;20469;55.638;37.670;2023-02-19T04:43:13;-6.80;99.90
34201;DHT22;20469;55.638;37.670;2023-02-19T04:45:41;-6.80;99.90
34201;DHT22;20469;55.638;37.670;2023-02-19T04:48:08;-6.80;99.90
34201;DHT22;20469;55.638;37.670;2023-02-19T04:50:39;-6.80;99.90
34201;DHT22;20469;55.638;37.670;2023-02-19T04:53:07;-6.80;99.90
34201;DHT22;20469;55.638;37.670;2023-02-19T04:55:38;-6.80;99.90
34201;DHT22;20469;55.638;37.670;2023-02-19T04:58:06;-6.80;99.90
34201;DHT22;20469;55.638;37.670;2023-02-19T05:00:33;-6.90;99.90
34201;DHT22;20469;55.638;37.670;2023-02-19T05:03:01;-6.90;99.90
34201;DHT22;20469;55.638;37.670;2023-02-19T05:05:28;-6.90;99.90
34201;DHT22;20469;55.638;37.670;2023-02-19T05:07:56;-7.30;99.90
34201;DHT22;20469;55.638;37.670;2023-02-19T05:10:24;-6.90;99.90
34201;DHT22;20469;55.638;37.670;2023-02-19T05:12:51;-6.90;99.90
34201;DHT22;20469;55.638;37.670;2023-02-19T05:15:23;-6.90;99.90
34201;DHT22;20469;55.638;37.670;2023-02-19T05:17:51;-6.90;99.90
34201;DHT22;20469;55.638;37.670;2023-02-19T05:20:18;-6.90;99.90
34201;DHT22;20469;55.638;37.670;2023-02-19T05:22:48;-6.80;99.90
34201;DHT22;20469;55.638;37.670;2023-02-19T05:25:18;-6.90;99.90
34201;DHT22;20469;55.638;37.670;2023-02-19T05:27:46;-6.80;99.90
34201;DHT22;20469;55.638;37.670;2023-02-19T05:30:13;-6.80;99.90
34201;DHT22;20469;55.638;37.670;2023-02-19T05:32:41;-6.80;99.90
34201;DHT22;20469;55.638;37.670;2023-02-19T05:35:08;-6.70;99.90
34201;DHT22;20469;55.638;37.670;2023-02-19T05:37:36;-6.80;99.90
34201;DHT22;20469;55.638;37.670;2023-02-19T05:40:04;-6.80;99.90
34201;DHT22;20469;55.638;37.670;2023-02-19T05:42:32;-6.80;99.90
34201;DHT22;20469;55.638;37.670;2023-02-19T05:44:59;-6.70;99.90
34201;DHT22;20469;55.638;37.670;2023-02-19T05:47:27;-6.70;99.90
34201;DHT22;20469;55.638;37.670;2023-02-19T05:49:54;-6.70;99.90
34201;DHT22;20469;55.638;37.670;2023-02-19T05:52:22;-6.70;99.90
34201;DHT22;20469;55.638;37.670;2023-02-19T05:54:50;-6.70;99.90
34201;DHT22;20469;55.638;37.670;2023-02-19T05:57:17;-6.70;99.90
34201;DHT22;20469;55.638;37.670;2023-02-19T05:59:46;-6.60;99.90
34201;DHT22;20469;55.638;37.670;2023-02-19T06:02:14;-6.60;99.90
34201;DHT22;20469;55.638;37.670;2023-02-19T06:04:41;-6.70;99.90
34201;DHT22;20469;55.638;37.670;2023-02-19T06:07:09;-6.50;99.90
34201;DHT22;20469;55.638;37.670;2023-02-19T06:09:36;-6.60;99.90
34201;DHT22;20469;55.638;37.670;2023-02-19T06:12:04;-6.60;99.90
34201;DHT22;20469;55.638;37.670;2023-02-19T06:14:32;-6.50;99.90
34201;DHT22;20469;55.638;37.670;2023-02-19T06:16:59;-6.60;99.90
34201;DHT22;20469;55.638;37.670;2023-02-19T06:19:27;-6.50;99.90
34201;DHT22;20469;55.638;37.670;2023-02-19T06:21:54;-6.50;99.90
34201;DHT22;20469;55.638;37.670;2023-02-19T06:24:22;-6.50;99.90
34201;DHT22;20469;55.638;37.670;2023-02-19T06:26:49;-6.40;99.90
34201;DHT22;20469;55.638;37.670;2023-02-19T06:29:17;-6.40;99.90
34201;DHT22;20469;55.638;37.670;2023-02-19T06:31:44;-6.50;99.90
34201;DHT22;20469;55.638;37.670;2023-02-19T06:34:12;-6.50;99.90
34201;DHT22;20469;55.638;37.670;2023-02-19T06:36:40;-6.40;99.90
34201;DHT22;20469;55.638;37.670;2023-02-19T06:39:09;-6.40;99.90
34201;DHT22;20469;55.638;37.670;2023-02-19T06:41:36;-6.40;99.90
34201;DHT22;20469;55.638;37.670;2023-02-19T06:44:04;-6.30;99.90
34201;DHT22;20469;55.638;37.670;2023-02-19T06:46:32;-6.30;99.90
34201;DHT22;20469;55.638;37.670;2023-02-19T06:49:03;-6.30;99.90
34201;DHT22;20469;55.638;37.670;2023-02-19T06:51:33;-6.30;99.90
34201;DHT22;20469;55.638;37.670;2023-02-19T06:54:00;-6.20;99.90
34201;DHT22;20469;55.638;37.670;2023-02-19T06:56:33;-6.20;99.90
34201;DHT22;20469;55.638;37.670;2023-02-19T06:59:03;-6.20;99.90
34201;DHT22;20469;55.638;37.670;2023-02-19T07:01:32;-6.20;99.90
34201;DHT22;20469;55.638;37.670;2023-02-19T07:04:00;-6.20;99.90
34201;DHT22;20469;55.638;37.670;2023-02-19T07:06:29;-5.80;99.90
34201;DHT22;20469;55.638;37.670;2023-02-19T07:08:58;-6.10;99.90
34201;DHT22;20469;55.638;37.670;2023-02-19T07:11:28;-6.10;99.90
34201;DHT22;20469;55.638;37.670;2023-02-19T07:14:02;-6.10;99.90
34201;DHT22;20469;55.638;37.670;2023-02-19T07:16:30;-6.00;99.90
34201;DHT22;20469;55.638;37.670;2023-02-19T07:18:59;-6.20;99.90
34201;DHT22;20469;55.638;37.670;2023-02-19T07:21:27;-6.10;99.90
34201;DHT22;20469;55.638;37.670;2023-02-19T07:23:56;-6.00;99.90
34201;DHT22;20469;55.638;37.670;2023-02-19T07:26:24;-6.10;99.90
34201;DHT22;20469;55.638;37.670;2023-02-19T07:28:52;-6.10;99.90
34201;DHT22;20469;55.638;37.670;2023-02-19T07:31:21;-6.00;99.90
34201;DHT22;20469;55.638;37.670;2023-02-19T07:33:49;-6.10;99.90
34201;DHT22;20469;55.638;37.670;2023-02-19T07:36:17;-6.00;99.90
34201;DHT22;20469;55.638;37.670;2023-02-19T07:38:45;-6.10;99.90
34201;DHT22;20469;55.638;37.670;2023-02-19T07:41:13;-6.10;99.90
34201;DHT22;20469;55.638;37.670;2023-02-19T07:43:40;-6.20;99.90
34201;DHT22;20469;55.638;37.670;2023-02-19T07:46:12;-6.10;99.90
34201;DHT22;20469;55.638;37.670;2023-02-19T07:48:41;-6.10;99.90
34201;DHT22;20469;55.638;37.670;2023-02-19T07:51:12;-6.10;99.90
34201;DHT22;20469;55.638;37.670;2023-02-19T07:53:45;-5.90;99.90
34201;DHT22;20469;55.638;37.670;2023-02-19T07:56:13;-6.20;99.90
34201;DHT22;20469;55.638;37.670;2023-02-19T07:58:41;-6.00;99.90
34201;DHT22;20469;55.638;37.670;2023-02-19T08:01:10;-5.90;99.90
34201;DHT22;20469;55.638;37.670;2023-02-19T08:03:40;-6.00;99.90
34201;DHT22;20469;55.638;37.670;2023-02-19T08:06:09;-6.00;99.90
34201;DHT22;20469;55.638;37.670;2023-02-19T08:08:38;-5.90;99.90
34201;DHT22;20469;55.638;37.670;2023-02-19T08:11:06;-5.90;99.90
34201;DHT22;20469;55.638;37.670;2023-02-19T08:13:52;-5.90;99.90
34201;DHT22;20469;55.638;37.670;2023-02-19T08:16:20;-5.70;99.90
34201;DHT22;20469;55.638;37.670;2023-02-19T08:19:08;-5.60;99.90
34201;DHT22;20469;55.638;37.670;2023-02-19T08:21:35;-5.80;99.90
34201;DHT22;20469;55.638;37.670;2023-02-19T08:24:03;-5.80;99.90
34201;DHT22;20469;55.638;37.670;2023-02-19T08:26:32;-5.70;99.90
34201;DHT22;20469;55.638;37.670;2023-02-19T08:28:59;-5.60;99.90
34201;DHT22;20469;55.638;37.670;2023-02-19T08:31:27;-5.60;99.90
34201;DHT22;20469;55.638;37.670;2023-02-19T08:33:55;-5.80;99.90
34201;DHT22;20469;55.638;37.670;2023-02-19T08:36:22;-5.80;99.90
34201;DHT22;20469;55.638;37.670;2023-02-19T08:38:50;-5.70;99.90
34201;DHT22;20469;55.638;37.670;2023-02-19T08:41:17;-5.70;99.90
34201;DHT22;20469;55.638;37.670;2023-02-19T08:43:48;-5.70;99.90
34201;DHT22;20469;55.638;37.670;2023-02-19T08:46:15;-5.70;99.90
34201;DHT22;20469;55.638;37.670;2023-02-19T08:48:43;-5.80;99.90
34201;DHT22;20469;55.638;37.670;2023-02-19T08:51:11;-5.70;99.90
34201;DHT22;20469;55.638;37.670;2023-02-19T08:53:40;-5.90;99.90
34201;DHT22;20469;55.638;37.670;2023-02-19T08:56:12;-5.90;99.90
34201;DHT22;20469;55.638;37.670;2023-02-19T08:58:40;-5.80;99.90
34201;DHT22;20469;55.638;37.670;2023-02-19T09:01:14;-6.10;99.90
34201;DHT22;20469;55.638;37.670;2023-02-19T09:03:42;-5.60;99.90
34201;DHT22;20469;55.638;37.670;2023-02-19T09:06:15;-5.70;99.90
34201;DHT22;20469;55.638;37.670;2023-02-19T09:08:43;-5.40;99.90
34201;DHT22;20469;55.638;37.670;2023-02-19T09:11:11;-5.40;99.90
34201;DHT22;20469;55.638;37.670;2023-02-19T09:13:39;-5.80;99.90
34201;DHT22;20469;55.638;37.670;2023-02-19T09:16:11;-5.70;99.90
34201;DHT22;20469;55.638;37.670;2023-02-19T09:18:38;-5.80;99.90
34201;DHT22;20469;55.638;37.670;2023-02-19T09:21:06;-5.60;99.90
34201;DHT22;20469;55.638;37.670;2023-02-19T09:23:35;-5.50;99.90
34201;DHT22;20469;55.638;37.670;2023-02-19T09:26:04;-5.40;99.90
34201;DHT22;20469;55.638;37.670;2023-02-19T09:28:35;-5.30;99.90
34201;DHT22;20469;55.638;37.670;2023-02-19T09:31:07;-5.40;99.90
34201;DHT22;20469;55.638;37.670;2023-02-19T09:33:35;-5.70;99.90
34201;DHT22;20469;55.638;37.670;2023-02-19T09:36:03;-5.70;99.90
34201;DHT22;20469;55.638;37.670;2023-02-19T09:38:33;-5.50;99.90
34201;DHT22;20469;55.638;37.670;2023-02-19T09:41:08;-5.30;99.90
34201;DHT22;20469;55.638;37.670;2023-02-19T09:43:39;-5.50;99.90
34201;DHT22;20469;55.638;37.670;2023-02-19T09:49:16;-5.40;99.90
34201;DHT22;20469;55.638;37.670;2023-02-19T09:51:52;-5.40;99.90
34201;DHT22;20469;55.638;37.670;2023-02-19T09:54:29;-5.20;99.90
34201;DHT22;20469;55.638;37.670;2023-02-19T09:57:00;-5.50;99.90
34201;DHT22;20469;55.638;37.670;2023-02-19T09:59:36;-5.30;99.90
34201;DHT22;20469;55.638;37.670;2023-02-19T10:04:43;-5.40;99.90
34201;DHT22;20469;55.638;37.670;2023-02-19T10:07:14;-5.80;99.90
34201;DHT22;20469;55.638;37.670;2023-02-19T10:09:54;-5.50;99.90
34201;DHT22;20469;55.638;37.670;2023-02-19T10:12:28;-5.20;99.90
34201;DHT22;20469;55.638;37.670;2023-02-19T10:15:15;-5.60;99.90
34201;DHT22;20469;55.638;37.670;2023-02-19T10:17:44;-5.40;99.90
34201;DHT22;20469;55.638;37.670;2023-02-19T10:20:15;-5.50;99.90
34201;DHT22;20469;55.638;37.670;2023-02-19T10:22:44;-5.60;99.90
34201;DHT22;20469;55.638;37.670;2023-02-19T10:25:14;-5.30;99.90
34201;DHT22;20469;55.638;37.670;2023-02-19T10:27:44;-5.20;99.90
34201;DHT22;20469;55.638;37.670;2023-02-19T10:30:23;-5.20;99.90
34201;DHT22;20469;55.638;37.670;2023-02-19T10:33:03;-5.20;99.90
34201;DHT22;20469;55.638;37.670;2023-02-19T10:35:35;-5.20;99.90
34201;DHT22;20469;55.638;37.670;2023-02-19T10:38:05;-5.00;99.90
34201;DHT22;20469;55.638;37.670;2023-02-19T10:40:34;-5.00;99.90
34201;DHT22;20469;55.638;37.670;2023-02-19T10:43:03;-4.90;99.90
34201;DHT22;20469;55.638;37.670;2023-02-19T10:45:37;-4.80;99.90
34201;DHT22;20469;55.638;37.670;2023-02-19T10:48:08;-4.70;99.90
34201;DHT22;20469;55.638;37.670;2023-02-19T10:50:51;-4.60;99.90
34201;DHT22;20469;55.638;37.670;2023-02-19T10:56:24;-5.40;99.90
34201;DHT22;20469;55.638;37.670;2023-02-19T10:58:52;-5.10;99.90
34201;DHT22;20469;55.638;37.670;2023-02-19T11:01:22;-5.20;99.90
34201;DHT22;20469;55.638;37.670;2023-02-19T11:03:52;-4.70;99.90
34201;DHT22;20469;55.638;37.670;2023-02-19T11:06:20;-4.50;99.90
34201;DHT22;20469;55.638;37.670;2023-02-19T11:08:57;-4.40;99.90
34201;DHT22;20469;55.638;37.670;2023-02-19T11:11:34;-4.40;99.90
34201;DHT22;20469;55.638;37.670;2023-02-19T11:14:12;-4.60;99.90
34201;DHT22;20469;55.638;37.670;2023-02-19T11:16:52;-4.10;99.90
34201;DHT22;20469;55.638;37.670;2023-02-19T11:19:38;-4.50;99.90
34201;DHT22;20469;55.638;37.670;2023-02-19T11:22:28;-4.50;99.90
34201;DHT22;20469;55.638;37.670;2023-02-19T11:25:04;-4.70;98.60
34201;DHT22;20469;55.638;37.670;2023-02-19T11:27:33;-4.60;99.90
34201;DHT22;20469;55.638;37.670;2023-02-19T11:30:26;-4.70;99.90
34201;DHT22;20469;55.638;37.670;2023-02-19T11:33:18;-4.90;99.90
34201;DHT22;20469;55.638;37.670;2023-02-19T11:35:48;-5.10;99.90
34201;DHT22;20469;55.638;37.670;2023-02-19T11:38:17;-4.80;99.90
34201;DHT22;20469;55.638;37.670;2023-02-19T11:41:08;-5.10;93.80
34201;DHT22;20469;55.638;37.670;2023-02-19T11:46:50;-4.90;90.40
34201;DHT22;20469;55.638;37.670;2023-02-19T11:52:34;-4.80;83.60
34201;DHT22;20469;55.638;37.670;2023-02-19T12:00:47;-4.70;67.70
34201;DHT22;20469;55.638;37.670;2023-02-19T12:06:25;-4.90;54.60
34201;DHT22;20469;55.638;37.670;2023-02-19T12:11:35;-4.90;53.30
34201;DHT22;20469;55.638;37.670;2023-02-19T12:17:01;-4.70;52.10
34201;DHT22;20469;55.638;37.670;2023-02-19T12:33:50;-4.90;49.50
34201;DHT22;20469;55.638;37.670;2023-02-19T12:44:42;-4.90;57.40
34201;DHT22;20469;55.638;37.670;2023-02-19T12:47:19;-4.80;66.60
34201;DHT22;20469;55.638;37.670;2023-02-19T12:50:07;-4.70;70.00
34201;DHT22;20469;55.638;37.670;2023-02-19T12:52:42;-4.80;64.00
34201;DHT22;20469;55.638;37.670;2023-02-19T12:55:25;-5.00;59.50
34201;DHT22;20469;55.638;37.670;2023-02-19T12:57:55;-5.10;64.20
34201;DHT22;20469;55.638;37.670;2023-02-19T13:03:21;-4.90;67.80
34201;DHT22;20469;55.638;37.670;2023-02-19T13:09:24;-4.70;76.70
34201;DHT22;20469;55.638;37.670;2023-02-19T13:12:25;-5.20;72.70
34201;DHT22;20469;55.638;37.670;2023-02-19T13:17:58;-5.20;92.50
34201;DHT22;20469;55.638;37.670;2023-02-19T13:20:35;-5.10;97.10
34201;DHT22;20469;55.638;37.670;2023-02-19T13:29:29;-5.10;99.90
34201;DHT22;20469;55.638;37.670;2023-02-19T13:38:27;-5.20;99.90
34201;DHT22;20469;55.638;37.670;2023-02-19T13:40:57;-5.20;99.90
34201;DHT22;20469;55.638;37.670;2023-02-19T13:43:30;-5.30;99.90
34201;DHT22;20469;55.638;37.670;2023-02-19T13:46:12;-5.30;99.90
34201;DHT22;20469;55.638;37.670;2023-02-19T13:48:42;-5.30;99.90
34201;DHT22;20469;55.638;37.670;2023-02-19T13:53:57;-5.30;99.90
34201;DHT22;20469;55.638;37.670;2023-02-19T13:59:36;-5.20;99.90
34201;DHT22;20469;55.638;37.670;2023-02-19T14:02:09;-5.20;99.90
34201;DHT22;20469;55.638;37.670;2023-02-19T14:07:36;-5.30;99.90
34201;DHT22;20469;55.638;37.670;2023-02-19T14:10:10;-5.30;99.90
34201;DHT22;20469;55.638;37.670;2023-02-19T14:12:39;-5.20;99.90
34201;DHT22;20469;55.638;37.670;2023-02-19T14:15:41;-5.30;99.90
34201;DHT22;20469;55.638;37.670;2023-02-19T14:18:45;-5.20;99.90
34201;DHT22;20469;55.638;37.670;2023-02-19T14:21:24;-5.40;99.90
34201;DHT22;20469;55.638;37.670;2023-02-19T14:23:56;-5.30;99.90
34201;DHT22;20469;55.638;37.670;2023-02-19T14:26:25;-5.40;99.90
34201;DHT22;20469;55.638;37.670;2023-02-19T14:28:54;-5.40;99.90
34201;DHT22;20469;55.638;37.670;2023-02-19T14:31:35;-5.30;99.90
34201;DHT22;20469;55.638;37.670;2023-02-19T14:34:12;-5.30;99.90
34201;DHT22;20469;55.638;37.670;2023-02-19T14:36:46;-5.40;99.90
34201;DHT22;20469;55.638;37.670;2023-02-19T14:39:17;-5.40;99.90
34201;DHT22;20469;55.638;37.670;2023-02-19T14:41:49;-5.40;99.90
34201;DHT22;20469;55.638;37.670;2023-02-19T14:44:28;-5.30;99.90
34201;DHT22;20469;55.638;37.670;2023-02-19T14:47:18;-5.40;99.90
34201;DHT22;20469;55.638;37.670;2023-02-19T14:50:08;-5.30;99.90
34201;DHT22;20469;55.638;37.670;2023-02-19T14:52:43;-5.30;99.90
34201;DHT22;20469;55.638;37.670;2023-02-19T14:57:52;-5.40;99.90
34201;DHT22;20469;55.638;37.670;2023-02-19T15:02:52;-5.40;99.90
34201;DHT22;20469;55.638;37.670;2023-02-19T15:05:30;-5.40;99.90
34201;DHT22;20469;55.638;37.670;2023-02-19T15:08:01;-5.40;99.90
34201;DHT22;20469;55.638;37.670;2023-02-19T15:10:31;-5.40;99.90
34201;DHT22;20469;55.638;37.670;2023-02-19T15:13:09;-5.40;99.90
34201;DHT22;20469;55.638;37.670;2023-02-19T15:15:44;-5.40;99.90
34201;DHT22;20469;55.638;37.670;2023-02-19T15:18:21;-5.30;99.90
34201;DHT22;20469;55.638;37.670;2023-02-19T15:20:52;-5.40;99.90
34201;DHT22;20469;55.638;37.670;2023-02-19T15:23:24;-5.40;99.90
34201;DHT22;20469;55.638;37.670;2023-02-19T15:25:57;-5.40;99.90
34201;DHT22;20469;55.638;37.670;2023-02-19T15:33:26;-5.40;99.90
34201;DHT22;20469;55.638;37.670;2023-02-19T15:35:57;-5.40;99.90
34201;DHT22;20469;55.638;37.670;2023-02-19T15:38:28;-5.40;99.90
34201;DHT22;20469;55.638;37.670;2023-02-19T15:40:56;-5.30;99.90
34201;DHT22;20469;55.638;37.670;2023-02-19T15:43:44;-5.40;99.90
34201;DHT22;20469;55.638;37.670;2023-02-19T15:46:18;-5.40;99.90
34201;DHT22;20469;55.638;37.670;2023-02-19T15:48:59;-5.30;99.90
34201;DHT22;20469;55.638;37.670;2023-02-19T15:51:38;-5.30;99.90
34201;DHT22;20469;55.638;37.670;2023-02-19T15:54:29;-5.40;99.90
34201;DHT22;20469;55.638;37.670;2023-02-19T15:57:04;-5.40;99.90
34201;DHT22;20469;55.638;37.670;2023-02-19T15:59:40;-5.50;99.90
34201;DHT22;20469;55.638;37.670;2023-02-19T16:02:12;-5.50;99.90
34201;DHT22;20469;55.638;37.670;2023-02-19T16:04:44;-5.40;99.90
34201;DHT22;20469;55.638;37.670;2023-02-19T16:07:27;-5.50;99.90
34201;DHT22;20469;55.638;37.670;2023-02-19T16:12:57;-5.50;99.90
34201;DHT22;20469;55.638;37.670;2023-02-19T16:15:27;-5.40;99.90
34201;DHT22;20469;55.638;37.670;2023-02-19T16:17:56;-5.40;99.90
34201;DHT22;20469;55.638;37.670;2023-02-19T16:20:32;-5.40;99.90
34201;DHT22;20469;55.638;37.670;2023-02-19T16:23:03;-5.50;99.90
34201;DHT22;20469;55.638;37.670;2023-02-19T16:28:22;-5.40;99.90
34201;DHT22;20469;55.638;37.670;2023-02-19T16:31:01;-5.30;99.90
34201;DHT22;20469;55.638;37.670;2023-02-19T16:41:27;-5.50;99.90
34201;DHT22;20469;55.638;37.670;2023-02-19T16:43:55;-5.40;99.90
34201;DHT22;20469;55.638;37.670;2023-02-19T16:46:23;-5.40;99.90
34201;DHT22;20469;55.638;37.670;2023-02-19T16:48:51;-5.40;99.90
34201;DHT22;20469;55.638;37.670;2023-02-19T16:51:26;-5.40;99.90
34201;DHT22;20469;55.638;37.670;2023-02-19T16:53:54;-5.50;99.90
34201;DHT22;20469;55.638;37.670;2023-02-19T16:56:24;-5.50;99.90
34201;DHT22;20469;55.638;37.670;2023-02-19T16:58:52;-5.50;99.90
34201;DHT22;20469;55.638;37.670;2023-02-19T17:01:20;-5.50;99.90
34201;DHT22;20469;55.638;37.670;2023-02-19T17:03:47;-5.50;99.90
34201;DHT22;20469;55.638;37.670;2023-02-19T17:06:15;-5.40;99.90
34201;DHT22;20469;55.638;37.670;2023-02-19T17:08:46;-5.40;99.90
34201;DHT22;20469;55.638;37.670;2023-02-19T17:11:17;-5.40;99.90
34201;DHT22;20469;55.638;37.670;2023-02-19T17:13:45;-5.40;99.90
34201;DHT22;20469;55.638;37.670;2023-02-19T17:16:20;-5.40;99.90
34201;DHT22;20469;55.638;37.670;2023-02-19T17:18:49;-5.40;99.90
34201;DHT22;20469;55.638;37.670;2023-02-19T17:23:49;-5.40;99.90
34201;DHT22;20469;55.638;37.670;2023-02-19T17:26:20;-5.50;99.90
34201;DHT22;20469;55.638;37.670;2023-02-19T17:28:48;-5.40;99.90
34201;DHT22;20469;55.638;37.670;2023-02-19T17:31:16;-5.40;99.90
34201;DHT22;20469;55.638;37.670;2023-02-19T17:33:46;-5.50;99.90
34201;DHT22;20469;55.638;37.670;2023-02-19T17:38:49;-5.40;99.90
34201;DHT22;20469;55.638;37.670;2023-02-19T17:41:17;-5.50;99.90
34201;DHT22;20469;55.638;37.670;2023-02-19T17:43:45;-5.50;99.90
34201;DHT22;20469;55.638;37.670;2023-02-19T17:46:18;-5.40;99.90
34201;DHT22;20469;55.638;37.670;2023-02-19T17:48:46;-5.50;99.90
34201;DHT22;20469;55.638;37.670;2023-02-19T17:51:14;-5.50;99.90
34201;DHT22;20469;55.638;37.670;2023-02-19T17:53:42;-5.50;99.90
34201;DHT22;20469;55.638;37.670;2023-02-19T17:56:15;-5.60;99.90
34201;DHT22;20469;55.638;37.670;2023-02-19T17:58:43;-5.50;99.90
34201;DHT22;20469;55.638;37.670;2023-02-19T18:01:11;-5.50;99.90
34201;DHT22;20469;55.638;37.670;2023-02-19T18:03:39;-5.40;99.90